sensor_id;sensor_type;location;lat;lon;timestamp;temperature;humidity
35381;DHT22;21486;51.916;8.378;2024-03-02T00:00:01;6.30;99.90
35381;DHT22;21486;51.916;8.378;2024-03-02T00:02:39;6.30;99.90
35381;DHT22;21486;51.916;8.378;2024-03-02T00:05:05;6.40;99.90
35381;DHT22;21486;51.916;8.378;2024-03-02T00:07:31;6.30;99.90
35381;DHT22;21486;51.916;8.378;2024-03-02T00:09:57;6.30;99.90
35381;DHT22;21486;51.916;8.378;2024-03-02T00:12:22;6.30;99.90
35381;DHT22;21486;51.916;8.378;2024-03-02T00:14:48;6.30;99.90
35381;DHT22;21486;51.916;8.378;2024-03-02T00:17:21;6.30;99.90
35381;DHT22;21486;51.916;8.378;2024-03-02T00:19:47;6.20;99.90
35381;DHT22;21486;51.916;8.378;2024-03-02T00:22:12;6.20;99.90
35381;DHT22;21486;51.916;8.378;2024-03-02T00:24:39;6.30;99.90
35381;DHT22;21486;51.916;8.378;2024-03-02T00:27:05;6.30;99.90
35381;DHT22;21486;51.916;8.378;2024-03-02T00:29:32;6.30;99.90
35381;DHT22;21486;51.916;8.378;2024-03-02T00:31:58;6.30;99.90
35381;DHT22;21486;51.916;8.378;2024-03-02T00:34:24;6.30;99.90
35381;DHT22;21486;51.916;8.378;2024-03-02T00:36:50;6.30;99.90
35381;DHT22;21486;51.916;8.378;2024-03-02T00:39:16;6.30;99.90
35381;DHT22;21486;51.916;8.378;2024-03-02T00:41:43;6.30;99.90
35381;DHT22;21486;51.916;8.378;2024-03-02T00:44:12;6.30;99.90
35381;DHT22;21486;51.916;8.378;2024-03-02T00:46:39;6.40;99.90
35381;DHT22;21486;51.916;8.378;2024-03-02T00:51:36;6.50;99.90
35381;DHT22;21486;51.916;8.378;2024-03-02T00:54:07;6.50;99.90
35381;DHT22;21486;51.916;8.378;2024-03-02T00:56:34;6.50;99.90
35381;DHT22;21486;51.916;8.378;2024-03-02T00:59:00;6.50;99.90
35381;DHT22;21486;51.916;8.378;2024-03-02T01:01:25;6.40;99.90
35381;DHT22;21486;51.916;8.378;2024-03-02T01:03:52;6.40;99.90
35381;DHT22;21486;51.916;8.378;2024-03-02T01:06:17;6.30;99.90
35381;DHT22;21486;51.916;8.378;2024-03-02T01:08:43;6.40;99.90
35381;DHT22;21486;51.916;8.378;2024-03-02T01:11:09;6.40;99.90
35381;DHT22;21486;51.916;8.378;2024-03-02T01:13:35;6.40;99.90
35381;DHT22;21486;51.916;8.378;2024-03-02T01:16:01;6.40;99.90
35381;DHT22;21486;51.916;8.378;2024-03-02T01:18:27;6.40;99.90
35381;DHT22;21486;51.916;8.378;2024-03-02T01:20:52;6.50;99.90
35381;DHT22;21486;51.916;8.378;2024-03-02T01:23:20;6.60;99.90
35381;DHT22;21486;51.916;8.378;2024-03-02T01:25:49;6.70;99.90
35381;DHT22;21486;51.916;8.378;2024-03-02T01:28:15;6.70;99.90
35381;DHT22;21486;51.916;8.378;2024-03-02T01:33:02;6.60;99.90
35381;DHT22;21486;51.916;8.378;2024-03-02T01:35:30;6.50;99.90
35381;DHT22;21486;51.916;8.378;2024-03-02T01:37:56;6.50;99.90
35381;DHT22;21486;51.916;8.378;2024-03-02T01:40:22;6.50;99.90
35381;DHT22;21486;51.916;8.378;2024-03-02T01:42:48;6.50;99.90
35381;DHT22;21486;51.916;8.378;2024-03-02T01:45:14;6.50;99.90
35381;DHT22;21486;51.916;8.378;2024-03-02T01:47:40;6.50;99.90
35381;DHT22;21486;51.916;8.378;2024-03-02T01:50:06;6.50;99.90
35381;DHT22;21486;51.916;8.378;2024-03-02T01:52:32;6.50;99.90
35381;DHT22;21486;51.916;8.378;2024-03-02T01:54:58;6.40;99.90
35381;DHT22;21486;51.916;8.378;2024-03-02T01:57:23;6.30;99.90
35381;DHT22;21486;51.916;8.378;2024-03-02T01:59:49;6.50;99.90
35381;DHT22;21486;51.916;8.378;2024-03-02T02:02:16;6.60;99.90
35381;DHT22;21486;51.916;8.378;2024-03-02T02:04:42;6.60;99.90
35381;DHT22;21486;51.916;8.378;2024-03-02T02:07:07;6.50;99.90
35381;DHT22;21486;51.916;8.378;2024-03-02T02:09:33;6.50;99.90
35381;DHT22;21486;51.916;8.378;2024-03-02T02:11:58;6.50;99.90
35381;DHT22;21486;51.916;8.378;2024-03-02T02:14:24;6.50;99.90
35381;DHT22;21486;51.916;8.378;2024-03-02T02:16:50;6.60;99.90
35381;DHT22;21486;51.916;8.378;2024-03-02T02:19:15;6.50;99.90
35381;DHT22;21486;51.916;8.378;2024-03-02T02:21:44;6.60;99.90
35381;DHT22;21486;51.916;8.378;2024-03-02T02:24:09;6.60;99.90
35381;DHT22;21486;51.916;8.378;2024-03-02T02:26:35;6.60;99.90
35381;DHT22;21486;51.916;8.378;2024-03-02T02:29:01;6.50;99.90
35381;DHT22;21486;51.916;8.378;2024-03-02T02:31:26;6.50;99.90
35381;DHT22;21486;51.916;8.378;2024-03-02T02:33:52;6.40;99.90
35381;DHT22;21486;51.916;8.378;2024-03-02T02:36:17;6.40;99.90
35381;DHT22;21486;51.916;8.378;2024-03-02T02:38:45;6.30;99.90
35381;DHT22;21486;51.916;8.378;2024-03-02T02:41:12;6.30;99.90
35381;DHT22;21486;51.916;8.378;2024-03-02T02:43:38;6.30;99.90
35381;DHT22;21486;51.916;8.378;2024-03-02T02:46:05;6.20;99.90
35381;DHT22;21486;51.916;8.378;2024-03-02T02:48:30;6.20;99.90
35381;DHT22;21486;51.916;8.378;2024-03-02T02:50:56;6.10;99.90
35381;DHT22;21486;51.916;8.378;2024-03-02T02:53:21;6.10;99.90
35381;DHT22;21486;51.916;8.378;2024-03-02T02:55:47;6.00;99.90
35381;DHT22;21486;51.916;8.378;2024-03-02T02:58:13;6.10;99.90
35381;DHT22;21486;51.916;8.378;2024-03-02T03:00:38;6.10;99.90
35381;DHT22;21486;51.916;8.378;2024-03-02T03:03:05;6.00;99.90
35381;DHT22;21486;51.916;8.378;2024-03-02T03:05:30;6.00;99.90
35381;DHT22;21486;51.916;8.378;2024-03-02T03:07:56;6.00;99.90
35381;DHT22;21486;51.916;8.378;2024-03-02T03:10:22;5.90;99.90
35381;DHT22;21486;51.916;8.378;2024-03-02T03:12:48;6.00;99.90
35381;DHT22;21486;51.916;8.378;2024-03-02T03:15:14;6.00;99.90
35381;DHT22;21486;51.916;8.378;2024-03-02T03:17:41;6.00;99.90
35381;DHT22;21486;51.916;8.378;2024-03-02T03:20:07;6.00;99.90
35381;DHT22;21486;51.916;8.378;2024-03-02T03:22:39;6.00;99.90
35381;DHT22;21486;51.916;8.378;2024-03-02T03:25:05;6.00;99.90
35381;DHT22;21486;51.916;8.378;2024-03-02T03:27:30;6.00;99.90
35381;DHT22;21486;51.916;8.378;2024-03-02T03:29:56;5.90;99.90
35381;DHT22;21486;51.916;8.378;2024-03-02T03:32:22;5.90;99.90
35381;DHT22;21486;51.916;8.378;2024-03-02T03:34:47;6.00;99.90
35381;DHT22;21486;51.916;8.378;2024-03-02T03:37:14;6.00;99.90
35381;DHT22;21486;51.916;8.378;2024-03-02T03:39:39;6.00;99.90
35381;DHT22;21486;51.916;8.378;2024-03-02T03:42:05;6.00;99.90
35381;DHT22;21486;51.916;8.378;2024-03-02T03:44:30;6.00;99.90
35381;DHT22;21486;51.916;8.378;2024-03-02T03:46:56;6.00;99.90
35381;DHT22;21486;51.916;8.378;2024-03-02T03:49:22;6.10;99.90
35381;DHT22;21486;51.916;8.378;2024-03-02T03:51:47;6.10;99.90
35381;DHT22;21486;51.916;8.378;2024-03-02T03:54:13;6.00;99.90
35381;DHT22;21486;51.916;8.378;2024-03-02T03:56:38;6.00;99.90
35381;DHT22;21486;51.916;8.378;2024-03-02T03:59:04;6.00;99.90
35381;DHT22;21486;51.916;8.378;2024-03-02T04:01:30;6.00;99.90
35381;DHT22;21486;51.916;8.378;2024-03-02T04:03:57;5.90;99.90
35381;DHT22;21486;51.916;8.378;2024-03-02T04:06:22;5.90;99.90
35381;DHT22;21486;51.916;8.378;2024-03-02T04:08:48;5.90;99.90
35381;DHT22;21486;51.916;8.378;2024-03-02T04:11:13;5.90;99.90
35381;DHT22;21486;51.916;8.378;2024-03-02T04:13:39;5.90;99.90
35381;DHT22;21486;51.916;8.378;2024-03-02T04:16:05;5.90;99.90
35381;DHT22;21486;51.916;8.378;2024-03-02T04:18:31;5.80;99.90
35381;DHT22;21486;51.916;8.378;2024-03-02T04:20:57;5.90;99.90
35381;DHT22;21486;51.916;8.378;2024-03-02T04:23:25;5.80;99.90
35381;DHT22;21486;51.916;8.378;2024-03-02T04:25:50;5.80;99.90
35381;DHT22;21486;51.916;8.378;2024-03-02T04:28:16;5.80;99.90
35381;DHT22;21486;51.916;8.378;2024-03-02T04:30:41;5.80;99.90
35381;DHT22;21486;51.916;8.378;2024-03-02T04:33:07;5.80;99.90
35381;DHT22;21486;51.916;8.378;2024-03-02T04:35:35;5.90;99.90
35381;DHT22;21486;51.916;8.378;2024-03-02T04:38:01;5.80;99.90
35381;DHT22;21486;51.916;8.378;2024-03-02T04:40:26;5.80;99.90
35381;DHT22;21486;51.916;8.378;2024-03-02T04:42:52;5.80;99.90
35381;DHT22;21486;51.916;8.378;2024-03-02T04:45:17;5.80;99.90
35381;DHT22;21486;51.916;8.378;2024-03-02T04:47:43;5.90;99.90
35381;DHT22;21486;51.916;8.378;2024-03-02T04:50:08;5.90;99.90
35381;DHT22;21486;51.916;8.378;2024-03-02T04:52:34;5.90;99.90
35381;DHT22;21486;51.916;8.378;2024-03-02T04:55:00;5.90;99.90
35381;DHT22;21486;51.916;8.378;2024-03-02T04:57:44;5.90;99.90
35381;DHT22;21486;51.916;8.378;2024-03-02T05:00:10;5.90;99.90
35381;DHT22;21486;51.916;8.378;2024-03-02T05:02:35;5.90;99.90
35381;DHT22;21486;51.916;8.378;2024-03-02T05:05:01;5.90;99.90
35381;DHT22;21486;51.916;8.378;2024-03-02T05:07:28;5.80;99.90
35381;DHT22;21486;51.916;8.378;2024-03-02T05:09:53;5.80;99.90
35381;DHT22;21486;51.916;8.378;2024-03-02T05:12:19;5.80;99.90
35381;DHT22;21486;51.916;8.378;2024-03-02T05:15:04;5.80;99.90
35381;DHT22;21486;51.916;8.378;2024-03-02T05:17:29;5.90;99.90
35381;DHT22;21486;51.916;8.378;2024-03-02T05:19:55;5.90;99.90
35381;DHT22;21486;51.916;8.378;2024-03-02T05:22:21;5.90;99.90
35381;DHT22;21486;51.916;8.378;2024-03-02T05:24:46;5.90;99.90
35381;DHT22;21486;51.916;8.378;2024-03-02T05:27:11;5.90;99.90
35381;DHT22;21486;51.916;8.378;2024-03-02T05:29:37;5.90;99.90
35381;DHT22;21486;51.916;8.378;2024-03-02T05:32:02;5.80;99.90
35381;DHT22;21486;51.916;8.378;2024-03-02T05:34:28;5.80;99.90
35381;DHT22;21486;51.916;8.378;2024-03-02T05:36:54;5.80;99.90
35381;DHT22;21486;51.916;8.378;2024-03-02T05:39:20;5.90;99.90
35381;DHT22;21486;51.916;8.378;2024-03-02T05:41:45;5.90;99.90
35381;DHT22;21486;51.916;8.378;2024-03-02T05:44:11;5.90;99.90
35381;DHT22;21486;51.916;8.378;2024-03-02T05:46:36;5.90;99.90
35381;DHT22;21486;51.916;8.378;2024-03-02T05:49:01;5.90;99.90
35381;DHT22;21486;51.916;8.378;2024-03-02T05:51:27;5.90;99.90
35381;DHT22;21486;51.916;8.378;2024-03-02T05:53:53;5.80;99.90
35381;DHT22;21486;51.916;8.378;2024-03-02T05:56:18;5.90;99.90
35381;DHT22;21486;51.916;8.378;2024-03-02T05:58:44;5.90;99.90
35381;DHT22;21486;51.916;8.378;2024-03-02T06:01:28;6.00;99.90
35381;DHT22;21486;51.916;8.378;2024-03-02T06:03:57;5.90;99.90
35381;DHT22;21486;51.916;8.378;2024-03-02T06:06:24;5.90;99.90
35381;DHT22;21486;51.916;8.378;2024-03-02T06:08:49;6.00;99.90
35381;DHT22;21486;51.916;8.378;2024-03-02T06:11:15;6.00;99.90
35381;DHT22;21486;51.916;8.378;2024-03-02T06:13:41;6.00;99.90
35381;DHT22;21486;51.916;8.378;2024-03-02T06:16:06;5.90;99.90
35381;DHT22;21486;51.916;8.378;2024-03-02T06:18:33;6.00;99.90
35381;DHT22;21486;51.916;8.378;2024-03-02T06:20:59;6.00;99.90
35381;DHT22;21486;51.916;8.378;2024-03-02T06:23:26;5.90;99.90
35381;DHT22;21486;51.916;8.378;2024-03-02T06:25:52;5.90;99.90
35381;DHT22;21486;51.916;8.378;2024-03-02T06:28:17;5.90;99.90
35381;DHT22;21486;51.916;8.378;2024-03-02T06:30:43;5.90;99.90
35381;DHT22;21486;51.916;8.378;2024-03-02T06:33:09;5.90;99.90
35381;DHT22;21486;51.916;8.378;2024-03-02T06:35:34;6.00;99.90
35381;DHT22;21486;51.916;8.378;2024-03-02T06:38:00;6.00;99.90
35381;DHT22;21486;51.916;8.378;2024-03-02T06:40:26;6.00;99.90
35381;DHT22;21486;51.916;8.378;2024-03-02T06:42:52;6.10;99.90
35381;DHT22;21486;51.916;8.378;2024-03-02T06:45:17;6.00;99.90
35381;DHT22;21486;51.916;8.378;2024-03-02T06:47:43;6.00;99.90
35381;DHT22;21486;51.916;8.378;2024-03-02T06:50:08;6.00;99.90
35381;DHT22;21486;51.916;8.378;2024-03-02T06:52:35;6.00;99.90
35381;DHT22;21486;51.916;8.378;2024-03-02T06:55:00;6.00;99.90
35381;DHT22;21486;51.916;8.378;2024-03-02T06:57:26;6.00;99.90
35381;DHT22;21486;51.916;8.378;2024-03-02T06:59:52;6.00;99.90
35381;DHT22;21486;51.916;8.378;2024-03-02T07:02:20;6.00;99.90
35381;DHT22;21486;51.916;8.378;2024-03-02T07:04:46;6.10;99.90
35381;DHT22;21486;51.916;8.378;2024-03-02T07:07:12;6.00;99.90
35381;DHT22;21486;51.916;8.378;2024-03-02T07:09:37;6.00;99.90
35381;DHT22;21486;51.916;8.378;2024-03-02T07:12:03;6.10;99.90
35381;DHT22;21486;51.916;8.378;2024-03-02T07:14:29;6.20;99.90
35381;DHT22;21486;51.916;8.378;2024-03-02T07:17:13;6.30;99.90
35381;DHT22;21486;51.916;8.378;2024-03-02T07:19:39;6.30;99.90
35381;DHT22;21486;51.916;8.378;2024-03-02T07:22:07;6.20;99.90
35381;DHT22;21486;51.916;8.378;2024-03-02T07:24:42;6.20;99.90
35381;DHT22;21486;51.916;8.378;2024-03-02T07:27:09;6.20;99.90
35381;DHT22;21486;51.916;8.378;2024-03-02T07:29:34;6.20;99.90
35381;DHT22;21486;51.916;8.378;2024-03-02T07:32:00;6.20;99.90
35381;DHT22;21486;51.916;8.378;2024-03-02T07:34:25;6.30;99.90
35381;DHT22;21486;51.916;8.378;2024-03-02T07:36:51;6.30;99.90
35381;DHT22;21486;51.916;8.378;2024-03-02T07:39:16;6.40;99.90
35381;DHT22;21486;51.916;8.378;2024-03-02T07:41:42;6.50;99.90
35381;DHT22;21486;51.916;8.378;2024-03-02T07:44:08;6.60;99.90
35381;DHT22;21486;51.916;8.378;2024-03-02T07:46:33;6.70;99.90
35381;DHT22;21486;51.916;8.378;2024-03-02T07:48:59;6.70;99.90
35381;DHT22;21486;51.916;8.378;2024-03-02T07:51:24;6.80;99.90
35381;DHT22;21486;51.916;8.378;2024-03-02T07:53:50;6.90;99.90
35381;DHT22;21486;51.916;8.378;2024-03-02T07:56:15;7.00;99.90
35381;DHT22;21486;51.916;8.378;2024-03-02T07:58:47;7.00;99.90
35381;DHT22;21486;51.916;8.378;2024-03-02T08:01:14;7.10;99.90
35381;DHT22;21486;51.916;8.378;2024-03-02T08:03:40;7.20;99.90
35381;DHT22;21486;51.916;8.378;2024-03-02T08:06:05;7.30;99.90
35381;DHT22;21486;51.916;8.378;2024-03-02T08:08:31;7.40;99.90
35381;DHT22;21486;51.916;8.378;2024-03-02T08:10:57;7.40;99.90
35381;DHT22;21486;51.916;8.378;2024-03-02T08:13:22;7.60;99.90
35381;DHT22;21486;51.916;8.378;2024-03-02T08:15:48;7.60;99.90
35381;DHT22;21486;51.916;8.378;2024-03-02T08:18:13;7.70;99.90
35381;DHT22;21486;51.916;8.378;2024-03-02T08:20:40;7.70;99.90
35381;DHT22;21486;51.916;8.378;2024-03-02T08:23:05;7.80;99.90
35381;DHT22;21486;51.916;8.378;2024-03-02T08:25:31;7.90;99.90
35381;DHT22;21486;51.916;8.378;2024-03-02T08:27:57;8.10;99.90
35381;DHT22;21486;51.916;8.378;2024-03-02T08:30:23;8.20;99.90
35381;DHT22;21486;51.916;8.378;2024-03-02T08:32:48;8.30;99.90
35381;DHT22;21486;51.916;8.378;2024-03-02T08:35:14;8.30;99.90
35381;DHT22;21486;51.916;8.378;2024-03-02T08:37:41;8.50;99.90
35381;DHT22;21486;51.916;8.378;2024-03-02T08:40:08;8.50;99.90
35381;DHT22;21486;51.916;8.378;2024-03-02T08:42:34;8.70;99.90
35381;DHT22;21486;51.916;8.378;2024-03-02T08:45:00;8.80;99.90
35381;DHT22;21486;51.916;8.378;2024-03-02T08:47:26;8.80;99.90
35381;DHT22;21486;51.916;8.378;2024-03-02T08:49:52;9.00;99.90
35381;DHT22;21486;51.916;8.378;2024-03-02T08:52:18;9.10;99.90
35381;DHT22;21486;51.916;8.378;2024-03-02T08:54:43;9.30;99.90
35381;DHT22;21486;51.916;8.378;2024-03-02T08:57:09;9.50;99.90
35381;DHT22;21486;51.916;8.378;2024-03-02T08:59:35;9.60;99.90
35381;DHT22;21486;51.916;8.378;2024-03-02T09:02:00;9.70;99.90
35381;DHT22;21486;51.916;8.378;2024-03-02T09:04:26;9.90;99.90
35381;DHT22;21486;51.916;8.378;2024-03-02T09:06:52;10.00;99.90
35381;DHT22;21486;51.916;8.378;2024-03-02T09:09:17;10.20;99.90
35381;DHT22;21486;51.916;8.378;2024-03-02T09:11:43;10.50;99.90
35381;DHT22;21486;51.916;8.378;2024-03-02T09:14:08;10.70;99.90
35381;DHT22;21486;51.916;8.378;2024-03-02T09:16:34;11.00;99.90
35381;DHT22;21486;51.916;8.378;2024-03-02T09:18:59;11.40;99.90
35381;DHT22;21486;51.916;8.378;2024-03-02T09:21:26;11.70;99.90
35381;DHT22;21486;51.916;8.378;2024-03-02T09:23:51;11.60;99.90
35381;DHT22;21486;51.916;8.378;2024-03-02T09:26:17;12.30;99.90
35381;DHT22;21486;51.916;8.378;2024-03-02T09:28:43;12.50;99.90
35381;DHT22;21486;51.916;8.378;2024-03-02T09:31:09;12.80;99.90
35381;DHT22;21486;51.916;8.378;2024-03-02T09:33:34;12.90;99.90
35381;DHT22;21486;51.916;8.378;2024-03-02T09:36:00;13.60;98.90
35381;DHT22;21486;51.916;8.378;2024-03-02T09:38:25;14.50;95.80
35381;DHT22;21486;51.916;8.378;2024-03-02T09:40:51;14.40;92.90
35381;DHT22;21486;51.916;8.378;2024-03-02T09:43:16;14.10;93.60
35381;DHT22;21486;51.916;8.378;2024-03-02T09:45:42;13.50;94.90
35381;DHT22;21486;51.916;8.378;2024-03-02T09:48:08;13.10;97.70
35381;DHT22;21486;51.916;8.378;2024-03-02T09:50:34;13.50;95.50
35381;DHT22;21486;51.916;8.378;2024-03-02T09:52:59;13.40;95.50
35381;DHT22;21486;51.916;8.378;2024-03-02T09:55:25;13.70;96.20
35381;DHT22;21486;51.916;8.378;2024-03-02T09:57:50;14.00;94.30
35381;DHT22;21486;51.916;8.378;2024-03-02T10:00:17;13.70;94.80
35381;DHT22;21486;51.916;8.378;2024-03-02T10:02:43;13.70;94.20
35381;DHT22;21486;51.916;8.378;2024-03-02T10:05:09;13.80;96.10
35381;DHT22;21486;51.916;8.378;2024-03-02T10:07:34;13.80;94.90
35381;DHT22;21486;51.916;8.378;2024-03-02T10:10:15;13.60;96.00
35381;DHT22;21486;51.916;8.378;2024-03-02T10:12:40;13.50;96.40
35381;DHT22;21486;51.916;8.378;2024-03-02T10:15:06;13.80;94.60
35381;DHT22;21486;51.916;8.378;2024-03-02T10:17:33;13.50;95.60
35381;DHT22;21486;51.916;8.378;2024-03-02T10:19:58;13.40;95.80
35381;DHT22;21486;51.916;8.378;2024-03-02T10:22:24;13.40;95.20
35381;DHT22;21486;51.916;8.378;2024-03-02T10:24:49;13.70;95.30
35381;DHT22;21486;51.916;8.378;2024-03-02T10:27:23;14.00;95.30
35381;DHT22;21486;51.916;8.378;2024-03-02T10:29:49;13.90;95.20
35381;DHT22;21486;51.916;8.378;2024-03-02T10:32:15;13.60;94.70
35381;DHT22;21486;51.916;8.378;2024-03-02T10:34:42;13.80;94.70
35381;DHT22;21486;51.916;8.378;2024-03-02T10:37:08;13.90;93.70
35381;DHT22;21486;51.916;8.378;2024-03-02T10:39:35;13.90;92.80
35381;DHT22;21486;51.916;8.378;2024-03-02T10:42:03;14.10;93.40
35381;DHT22;21486;51.916;8.378;2024-03-02T10:44:29;14.80;91.50
35381;DHT22;21486;51.916;8.378;2024-03-02T10:46:56;14.70;91.40
35381;DHT22;21486;51.916;8.378;2024-03-02T10:49:23;15.40;89.80
35381;DHT22;21486;51.916;8.378;2024-03-02T10:51:50;16.10;85.50
35381;DHT22;21486;51.916;8.378;2024-03-02T10:54:16;16.40;81.90
35381;DHT22;21486;51.916;8.378;2024-03-02T10:56:44;16.70;80.30
35381;DHT22;21486;51.916;8.378;2024-03-02T10:59:21;16.60;79.20
35381;DHT22;21486;51.916;8.378;2024-03-02T11:01:50;16.50;78.10
35381;DHT22;21486;51.916;8.378;2024-03-02T11:04:18;16.30;79.50
35381;DHT22;21486;51.916;8.378;2024-03-02T11:06:50;16.70;78.90
35381;DHT22;21486;51.916;8.378;2024-03-02T11:09:19;16.00;78.90
35381;DHT22;21486;51.916;8.378;2024-03-02T11:12:02;16.70;78.30
35381;DHT22;21486;51.916;8.378;2024-03-02T11:14:30;16.60;77.40
35381;DHT22;21486;51.916;8.378;2024-03-02T11:16:57;16.80;78.10
35381;DHT22;21486;51.916;8.378;2024-03-02T11:19:24;16.10;78.60
35381;DHT22;21486;51.916;8.378;2024-03-02T11:21:50;15.80;83.70
35381;DHT22;21486;51.916;8.378;2024-03-02T11:26:51;16.40;82.00
35381;DHT22;21486;51.916;8.378;2024-03-02T11:32:02;16.20;81.30
35381;DHT22;21486;51.916;8.378;2024-03-02T11:34:32;16.60;80.80
35381;DHT22;21486;51.916;8.378;2024-03-02T11:36:58;17.10;77.40
35381;DHT22;21486;51.916;8.378;2024-03-02T11:39:27;16.60;78.30
35381;DHT22;21486;51.916;8.378;2024-03-02T11:41:53;16.40;79.50
35381;DHT22;21486;51.916;8.378;2024-03-02T11:44:20;16.60;78.50
35381;DHT22;21486;51.916;8.378;2024-03-02T11:46:59;16.40;80.60
35381;DHT22;21486;51.916;8.378;2024-03-02T11:49:41;15.50;83.70
35381;DHT22;21486;51.916;8.378;2024-03-02T11:52:08;15.50;87.30
35381;DHT22;21486;51.916;8.378;2024-03-02T11:54:36;15.40;85.50
35381;DHT22;21486;51.916;8.378;2024-03-02T11:57:03;15.30;87.20
35381;DHT22;21486;51.916;8.378;2024-03-02T11:59:29;15.10;88.90
35381;DHT22;21486;51.916;8.378;2024-03-02T12:01:55;15.50;86.70
35381;DHT22;21486;51.916;8.378;2024-03-02T12:04:21;15.60;87.40
35381;DHT22;21486;51.916;8.378;2024-03-02T12:06:53;15.50;81.90
35381;DHT22;21486;51.916;8.378;2024-03-02T12:09:20;15.10;87.60
35381;DHT22;21486;51.916;8.378;2024-03-02T12:11:46;15.20;88.50
35381;DHT22;21486;51.916;8.378;2024-03-02T12:14:12;15.90;86.00
35381;DHT22;21486;51.916;8.378;2024-03-02T12:16:38;16.10;81.80
35381;DHT22;21486;51.916;8.378;2024-03-02T12:19:05;15.50;76.70
35381;DHT22;21486;51.916;8.378;2024-03-02T12:21:31;15.40;76.90
35381;DHT22;21486;51.916;8.378;2024-03-02T12:23:57;15.30;77.70
35381;DHT22;21486;51.916;8.378;2024-03-02T12:26:23;15.20;76.00
35381;DHT22;21486;51.916;8.378;2024-03-02T12:28:49;15.00;77.40
35381;DHT22;21486;51.916;8.378;2024-03-02T12:31:15;14.80;77.30
35381;DHT22;21486;51.916;8.378;2024-03-02T12:33:40;14.90;77.30
35381;DHT22;21486;51.916;8.378;2024-03-02T12:36:09;14.90;78.70
35381;DHT22;21486;51.916;8.378;2024-03-02T12:38:37;14.70;80.30
35381;DHT22;21486;51.916;8.378;2024-03-02T12:41:03;14.70;79.00
35381;DHT22;21486;51.916;8.378;2024-03-02T12:43:31;14.70;80.50
35381;DHT22;21486;51.916;8.378;2024-03-02T12:45:59;14.60;84.10
35381;DHT22;21486;51.916;8.378;2024-03-02T12:48:25;14.40;86.20
35381;DHT22;21486;51.916;8.378;2024-03-02T12:50:50;14.30;88.30
35381;DHT22;21486;51.916;8.378;2024-03-02T12:53:16;14.30;90.00
35381;DHT22;21486;51.916;8.378;2024-03-02T12:55:42;14.20;91.60
35381;DHT22;21486;51.916;8.378;2024-03-02T12:58:19;14.20;92.20
35381;DHT22;21486;51.916;8.378;2024-03-02T13:00:46;14.30;93.40
35381;DHT22;21486;51.916;8.378;2024-03-02T13:03:11;14.40;93.20
35381;DHT22;21486;51.916;8.378;2024-03-02T13:05:37;14.40;92.60
35381;DHT22;21486;51.916;8.378;2024-03-02T13:08:03;14.30;92.40
35381;DHT22;21486;51.916;8.378;2024-03-02T13:10:30;14.40;91.40
35381;DHT22;21486;51.916;8.378;2024-03-02T13:12:59;14.30;91.80
35381;DHT22;21486;51.916;8.378;2024-03-02T13:15:28;14.40;91.60
35381;DHT22;21486;51.916;8.378;2024-03-02T13:17:54;14.40;91.90
35381;DHT22;21486;51.916;8.378;2024-03-02T13:20:23;14.30;92.30
35381;DHT22;21486;51.916;8.378;2024-03-02T13:22:54;14.50;92.90
35381;DHT22;21486;51.916;8.378;2024-03-02T13:25:20;14.40;92.30
35381;DHT22;21486;51.916;8.378;2024-03-02T13:27:46;14.20;93.10
35381;DHT22;21486;51.916;8.378;2024-03-02T13:30:12;14.00;93.80
35381;DHT22;21486;51.916;8.378;2024-03-02T13:32:37;14.00;94.40
35381;DHT22;21486;51.916;8.378;2024-03-02T13:35:03;14.00;94.40
35381;DHT22;21486;51.916;8.378;2024-03-02T13:37:29;13.70;94.70
35381;DHT22;21486;51.916;8.378;2024-03-02T13:39:54;13.60;95.40
35381;DHT22;21486;51.916;8.378;2024-03-02T13:42:20;13.70;96.10
35381;DHT22;21486;51.916;8.378;2024-03-02T13:44:46;13.70;96.00
35381;DHT22;21486;51.916;8.378;2024-03-02T13:47:13;13.70;96.00
35381;DHT22;21486;51.916;8.378;2024-03-02T13:49:39;13.70;96.10
35381;DHT22;21486;51.916;8.378;2024-03-02T13:52:09;13.60;96.30
35381;DHT22;21486;51.916;8.378;2024-03-02T13:54:45;13.70;96.30
35381;DHT22;21486;51.916;8.378;2024-03-02T13:57:11;13.70;96.60
35381;DHT22;21486;51.916;8.378;2024-03-02T13:59:38;13.80;96.20
35381;DHT22;21486;51.916;8.378;2024-03-02T14:02:05;13.70;96.30
35381;DHT22;21486;51.916;8.378;2024-03-02T14:04:33;13.60;96.30
35381;DHT22;21486;51.916;8.378;2024-03-02T14:06:59;13.80;95.90
35381;DHT22;21486;51.916;8.378;2024-03-02T14:09:25;13.70;96.40
35381;DHT22;21486;51.916;8.378;2024-03-02T14:11:51;13.80;96.60
35381;DHT22;21486;51.916;8.378;2024-03-02T14:14:17;13.80;96.50
35381;DHT22;21486;51.916;8.378;2024-03-02T14:16:43;13.90;96.80
35381;DHT22;21486;51.916;8.378;2024-03-02T14:19:08;13.80;96.10
35381;DHT22;21486;51.916;8.378;2024-03-02T14:21:35;13.80;96.40
35381;DHT22;21486;51.916;8.378;2024-03-02T14:24:01;13.70;96.40
35381;DHT22;21486;51.916;8.378;2024-03-02T14:26:27;13.70;96.50
35381;DHT22;21486;51.916;8.378;2024-03-02T14:28:53;13.60;96.80
35381;DHT22;21486;51.916;8.378;2024-03-02T14:31:19;13.60;97.10
35381;DHT22;21486;51.916;8.378;2024-03-02T14:33:45;13.60;97.30
35381;DHT22;21486;51.916;8.378;2024-03-02T14:36:11;13.60;96.70
35381;DHT22;21486;51.916;8.378;2024-03-02T14:38:37;13.60;96.70
35381;DHT22;21486;51.916;8.378;2024-03-02T14:41:03;13.60;96.60
35381;DHT22;21486;51.916;8.378;2024-03-02T14:43:29;13.60;96.40
35381;DHT22;21486;51.916;8.378;2024-03-02T14:45:55;13.50;96.50
35381;DHT22;21486;51.916;8.378;2024-03-02T14:48:21;13.50;96.70
35381;DHT22;21486;51.916;8.378;2024-03-02T14:50:46;13.50;96.40
35381;DHT22;21486;51.916;8.378;2024-03-02T14:53:12;13.50;96.60
35381;DHT22;21486;51.916;8.378;2024-03-02T14:55:38;13.50;96.60
35381;DHT22;21486;51.916;8.378;2024-03-02T14:58:03;13.50;97.00
35381;DHT22;21486;51.916;8.378;2024-03-02T15:00:29;13.50;96.70
35381;DHT22;21486;51.916;8.378;2024-03-02T15:02:54;13.60;97.20
35381;DHT22;21486;51.916;8.378;2024-03-02T15:05:20;13.50;96.50
35381;DHT22;21486;51.916;8.378;2024-03-02T15:07:45;13.60;96.30
35381;DHT22;21486;51.916;8.378;2024-03-02T15:10:11;13.60;96.40
35381;DHT22;21486;51.916;8.378;2024-03-02T15:12:37;13.50;96.40
35381;DHT22;21486;51.916;8.378;2024-03-02T15:15:03;13.60;95.90
35381;DHT22;21486;51.916;8.378;2024-03-02T15:17:29;13.60;95.20
35381;DHT22;21486;51.916;8.378;2024-03-02T15:19:54;13.60;95.60
35381;DHT22;21486;51.916;8.378;2024-03-02T15:22:20;13.60;95.30
35381;DHT22;21486;51.916;8.378;2024-03-02T15:24:45;13.50;95.80
35381;DHT22;21486;51.916;8.378;2024-03-02T15:27:11;13.40;95.90
35381;DHT22;21486;51.916;8.378;2024-03-02T15:29:36;13.50;96.00
35381;DHT22;21486;51.916;8.378;2024-03-02T15:32:05;13.40;96.40
35381;DHT22;21486;51.916;8.378;2024-03-02T15:34:32;13.40;96.50
35381;DHT22;21486;51.916;8.378;2024-03-02T15:36:58;13.40;96.00
35381;DHT22;21486;51.916;8.378;2024-03-02T15:39:23;13.40;95.80
35381;DHT22;21486;51.916;8.378;2024-03-02T15:41:49;13.40;95.70
35381;DHT22;21486;51.916;8.378;2024-03-02T15:44:14;13.40;95.40